Briefing drone pour Nevers (LFQG)

Rechercher une autre localisation

Conditions de vol :


Nous sommes le : Jeudi 01 octobre 2020
Il est 16:15 UTC (18:15 LT)

Lever de soleil : 05:20 UTC (07:20 LT)
Coucher de soleil : 17:53 UTC (19:53 LT)

Météo

L'essentiel des conditions de vol

VIGILANCE MÉTÉO FRANCE - Nièvre (58)
Pas de vigilances particulieres
METAR de LFQG
LFQG 011600Z AUTO 24008KT 200V270 CAVOK 17/08 Q1005

Date d'émission: 01/10/2020
Heure d'émission: 16:00 UTC
Vent: 240° (variable du 200° au 270°) pour 8 KT (15 km/h)
Visibilité horizontale: > 10 km
Plafond : Plafond et visibilité OK (CAVOK)
Température: 17 °C
Point de rosée: 8 °C
Humidité: 55%
Pression (QNH): 1005 hPa
Prévision 24h pour Nevers
Vent : 284° pour 3 KT (12 km/h)
Temperature Maxi: 11 °C
Temperature Min: 11 °C
Humidité : 97%
Condition : Pluie modérée



Warning: count(): Parameter must be an array or an object that implements Countable in /homepages/6/d509196549/htdocs/droneoxygene/briefing.php on line 743
WEBCAM POUR NEVERS

Réglementation

Voler en sécurité

CARTES AERONAUTIQUE 1/500.000
CARTES VAC (LFQG)
SUP AIP




Chargement des AIP...
NOTAM (NEVERS + Terrain à proximité / FIR )




Chargement des NOTAMS...
CONTACT PREFECTURE 58


Avertissement : Les données mises à disposition sont indicatives. Oxygène Drone ne pourra être tenu responsable de dégâts causés aux biens et aux personnes.